createdAt,value
2023-04-05T00:01:29.159Z,10.25
2023-04-05T00:06:32.380Z,4.03
2023-04-05T00:11:36.371Z,4.85
2023-04-05T00:16:39.827Z,6.03
2023-04-05T00:21:44.412Z,4.55
2023-04-05T00:26:48.793Z,4.38
2023-04-05T00:31:52.424Z,3.80
2023-04-05T00:36:55.606Z,6.93
2023-04-05T00:41:59.098Z,5.15
2023-04-05T00:47:05.439Z,4.07
2023-04-05T00:52:09.134Z,5.18
2023-04-05T00:57:12.962Z,4.15
2023-04-05T01:02:25.466Z,7.10
2023-04-05T01:07:50.331Z,3.63
2023-04-05T01:12:54.132Z,7.95
2023-04-05T01:17:57.867Z,5.07
2023-04-05T01:23:38.177Z,5.38
2023-04-05T01:29:10.039Z,8.15
2023-04-05T01:34:38.415Z,5.85
2023-04-05T01:39:42.523Z,8.07
2023-04-05T01:44:45.977Z,4.00
2023-04-05T01:49:49.432Z,5.72
2023-04-05T01:54:53.751Z,10.80
2023-04-05T01:59:57.277Z,12.00
2023-04-05T02:05:01.025Z,10.93
2023-04-05T02:10:05.154Z,6.30
2023-04-05T02:15:09.727Z,11.27
2023-04-05T02:20:14.602Z,7.00
2023-04-05T02:25:18.193Z,7.72
2023-04-05T02:30:21.420Z,8.23
2023-04-05T02:35:24.742Z,9.65
2023-04-05T02:40:28.914Z,9.95
2023-04-05T02:45:33.017Z,11.05
2023-04-05T02:50:36.796Z,9.23
2023-04-05T02:55:42.280Z,8.63
2023-04-05T03:00:52.207Z,11.60
2023-04-05T03:06:22.788Z,11.52
2023-04-05T03:11:28.276Z,12.48
2023-04-05T03:16:34.854Z,13.48
2023-04-05T03:21:45.574Z,13.13
2023-04-05T03:27:06.364Z,12.32
2023-04-05T03:32:31.197Z,11.80
2023-04-05T03:37:43.923Z,17.40
2023-04-05T03:42:47.470Z,13.10
2023-04-05T03:47:51.283Z,13.38
2023-04-05T03:52:54.791Z,17.65
2023-04-05T03:57:59.258Z,13.88
2023-04-05T04:03:10.942Z,18.58
2023-04-05T04:08:18.646Z,16.00
2023-04-05T04:13:22.065Z,11.30
2023-04-05T04:18:37.991Z,15.65
2023-04-05T04:24:01.317Z,18.00
2023-04-05T04:29:31.556Z,11.95
2023-04-05T04:34:56.361Z,16.35
2023-04-05T04:46:00.659Z,20.42
2023-04-05T04:51:28.634Z,20.42
2023-04-05T04:56:31.711Z,24.75
2023-04-05T05:01:38.404Z,75.80
2023-04-05T05:06:41.821Z,20.90
2023-04-05T05:11:44.915Z,17.60
2023-04-05T05:16:50.238Z,20.23
2023-04-05T05:21:55.287Z,15.57
2023-04-05T05:26:58.747Z,17.55
2023-04-05T05:32:01.948Z,19.38
2023-04-05T05:37:05.041Z,11.70
2023-04-05T05:42:09.031Z,16.77
2023-04-05T05:47:12.973Z,16.95
2023-04-05T05:52:16.555Z,17.02
2023-04-05T05:57:20.929Z,13.32
2023-04-05T06:02:24.430Z,14.10
2023-04-05T06:07:28.018Z,11.10
2023-04-05T06:12:31.974Z,8.43
2023-04-05T06:17:42.365Z,11.98
2023-04-05T06:22:46.121Z,13.68
2023-04-05T06:27:49.623Z,6.80
2023-04-05T06:32:54.929Z,7.43
2023-04-05T06:37:58.968Z,6.15
2023-04-05T06:43:02.509Z,8.77
2023-04-05T06:48:09.369Z,8.33
2023-04-05T06:53:15.507Z,4.90
2023-04-05T06:58:18.717Z,6.03
2023-04-05T07:03:23.095Z,4.93
2023-04-05T07:08:27.639Z,5.80
2023-04-05T07:13:31.560Z,5.38
2023-04-05T07:18:35.676Z,9.73
2023-04-05T07:23:39.708Z,4.95
2023-04-05T07:28:42.906Z,6.00
2023-04-05T07:33:46.915Z,3.28
2023-04-05T07:38:50.578Z,4.10
2023-04-05T07:43:54.793Z,4.75
2023-04-05T07:48:58.659Z,6.05
2023-04-05T07:54:03.352Z,3.88
2023-04-05T07:59:07.215Z,2.42
2023-04-05T08:04:10.634Z,6.30
2023-04-05T08:09:14.024Z,4.25
2023-04-05T08:14:17.141Z,4.43
2023-04-05T08:19:20.792Z,5.88
2023-04-05T08:24:24.565Z,3.05
2023-04-05T08:29:27.818Z,6.88
2023-04-05T08:34:31.237Z,2.15
2023-04-05T08:39:38.117Z,4.72
2023-04-05T08:44:42.847Z,4.57
2023-04-05T08:49:47.289Z,3.20
2023-04-05T08:54:51.066Z,5.35
2023-04-05T08:59:56.737Z,2.47
2023-04-05T09:05:01.255Z,6.38
2023-04-05T09:10:07.455Z,4.85
2023-04-05T09:15:12.215Z,5.63
2023-04-05T09:20:15.868Z,6.28
2023-04-05T09:25:42.743Z,6.13
2023-04-05T09:30:48.688Z,4.18
2023-04-05T09:35:52.719Z,3.33
2023-04-05T09:40:57.167Z,4.45
2023-04-05T09:46:32.875Z,3.60
2023-04-05T09:51:39.373Z,5.72
2023-04-05T09:56:55.409Z,7.10
2023-04-05T10:01:58.647Z,4.35
2023-04-05T10:07:02.826Z,3.90
2023-04-05T10:12:08.924Z,3.92
2023-04-05T10:17:21.689Z,4.07
2023-04-05T10:22:49.172Z,4.00
2023-04-05T10:33:12.782Z,3.72
2023-04-05T10:38:30.274Z,1.27
2023-04-05T10:43:37.748Z,1.33
2023-04-05T10:49:02.321Z,0.85
2023-04-05T10:54:08.339Z,0.40
2023-04-05T10:59:13.284Z,1.87
2023-04-05T11:04:18.262Z,1.90
2023-04-05T11:09:23.800Z,2.22
2023-04-05T11:14:39.534Z,3.33
2023-04-05T11:19:43.578Z,1.48
2023-04-05T11:24:58.336Z,1.60
2023-04-05T11:30:03.296Z,2.10
2023-04-05T11:35:08.554Z,2.53
2023-04-05T11:40:31.271Z,3.35
2023-04-05T11:45:36.560Z,1.70
2023-04-05T11:50:47.755Z,1.92
2023-04-05T11:55:53.279Z,1.77
2023-04-05T12:01:05.246Z,1.67
2023-04-05T12:06:09.156Z,2.25
2023-04-05T12:11:13.601Z,2.08
2023-04-05T12:16:17.491Z,1.55
2023-04-05T12:21:21.213Z,1.27
2023-04-05T12:26:25.992Z,1.77
2023-04-05T12:31:39.808Z,2.40
2023-04-05T12:36:46.873Z,1.73
2023-04-05T12:42:17.403Z,0.80
2023-04-05T12:47:22.156Z,1.08
2023-04-05T12:52:28.353Z,2.03
2023-04-05T12:57:32.674Z,3.83
2023-04-05T13:02:37.145Z,3.33
2023-04-05T13:07:40.343Z,2.95
2023-04-05T13:12:44.481Z,2.72
2023-04-05T13:17:50.449Z,3.03
2023-04-05T13:22:56.019Z,3.38
2023-04-05T13:28:00.150Z,2.58
2023-04-05T13:33:05.005Z,1.70
2023-04-05T13:38:08.620Z,1.98
2023-04-05T13:43:12.611Z,2.22
2023-04-05T13:48:16.800Z,2.78
2023-04-05T13:53:19.997Z,3.15
2023-04-05T13:58:23.908Z,2.15
2023-04-05T14:03:27.504Z,2.03
2023-04-05T14:08:31.105Z,3.67
2023-04-05T14:13:34.223Z,1.48
2023-04-05T14:18:37.720Z,3.45
2023-04-05T14:23:41.787Z,1.95
2023-04-05T14:28:46.323Z,4.45
2023-04-05T14:33:50.261Z,7.20
2023-04-05T14:38:53.901Z,3.65
2023-04-05T14:43:58.151Z,3.58
2023-04-05T14:49:01.622Z,2.28
2023-04-05T14:54:05.066Z,4.25
2023-04-05T14:59:08.164Z,6.47
2023-04-05T15:04:12.457Z,3.53
2023-04-05T15:09:16.044Z,3.80
2023-04-05T15:14:30.748Z,3.08
2023-04-05T15:19:36.427Z,2.30
2023-04-05T15:24:43.422Z,2.72
2023-04-05T15:29:47.452Z,3.60
2023-04-05T15:34:51.695Z,2.95
2023-04-05T15:39:55.800Z,2.03
2023-04-05T15:44:59.428Z,2.50
2023-04-05T15:50:03.510Z,3.58
2023-04-05T15:55:07.245Z,1.70
2023-04-05T16:00:11.802Z,3.20
2023-04-05T16:05:15.928Z,3.83
2023-04-05T16:10:19.084Z,2.20
2023-04-05T16:15:22.465Z,3.10
2023-04-05T16:20:26.479Z,1.58
2023-04-05T16:25:29.899Z,1.05
2023-04-05T16:30:33.824Z,3.13
2023-04-05T16:35:37.729Z,6.53
2023-04-05T16:40:41.917Z,4.32
2023-04-05T16:45:45.413Z,5.00
2023-04-05T16:50:49.076Z,1.40
2023-04-05T16:55:52.638Z,1.95
2023-04-05T17:00:59.073Z,3.17
2023-04-05T17:06:03.041Z,5.70
2023-04-05T17:11:07.236Z,3.25
2023-04-05T17:16:10.767Z,2.88
2023-04-05T17:21:14.805Z,1.45
2023-04-05T17:26:18.814Z,1.05
2023-04-05T17:31:22.238Z,1.67
2023-04-05T17:36:27.707Z,2.53
2023-04-05T17:41:31.821Z,2.70
2023-04-05T17:46:42.818Z,3.45
2023-04-05T17:51:48.841Z,2.72
2023-04-05T17:56:52.543Z,4.93
2023-04-05T18:01:57.686Z,2.80
2023-04-05T18:07:01.580Z,2.20
2023-04-05T18:12:05.931Z,1.48
2023-04-05T18:17:09.652Z,0.52
2023-04-05T18:22:13.387Z,2.00
2023-04-05T18:27:17.153Z,1.98
2023-04-05T18:32:20.915Z,2.92
2023-04-05T18:37:24.489Z,3.80
2023-04-05T18:42:28.240Z,3.47
2023-04-05T18:47:32.373Z,1.85
2023-04-05T18:52:38.222Z,3.15
2023-04-05T18:57:42.244Z,3.75
2023-04-05T19:02:45.887Z,2.38
2023-04-05T19:07:48.991Z,2.83
2023-04-05T19:12:52.962Z,4.85
2023-04-05T19:17:56.178Z,1.80
2023-04-05T19:23:00.012Z,0.85
2023-04-05T19:28:03.692Z,1.10
2023-04-05T19:33:07.829Z,1.23
2023-04-05T19:38:14.324Z,0.65
2023-04-05T19:43:17.940Z,1.53
2023-04-05T19:48:37.579Z,2.00
2023-04-05T19:53:49.589Z,2.00
2023-04-05T19:59:01.941Z,2.63
2023-04-05T20:04:19.487Z,1.02
2023-04-05T20:09:24.182Z,0.85
2023-04-05T20:14:30.872Z,1.77
2023-04-05T20:19:34.323Z,0.87
2023-04-05T20:24:40.203Z,3.08
2023-04-05T20:29:43.558Z,5.70
2023-04-05T20:34:47.378Z,2.80
2023-04-05T20:39:51.225Z,4.75
2023-04-05T20:44:55.231Z,6.50
2023-04-05T20:49:59.864Z,2.85
2023-04-05T20:55:03.786Z,1.48
2023-04-05T21:00:08.281Z,2.13
2023-04-05T21:05:11.557Z,2.88
2023-04-05T21:10:15.161Z,3.95
2023-04-05T21:15:18.616Z,5.95
2023-04-05T21:20:22.264Z,2.22
2023-04-05T21:25:26.229Z,1.30
2023-04-05T21:30:30.073Z,2.83
2023-04-05T21:35:34.208Z,3.88
2023-04-05T21:40:37.803Z,2.40
2023-04-05T21:45:41.995Z,2.30
2023-04-05T21:50:45.161Z,2.95
2023-04-05T21:55:49.044Z,5.22
2023-04-05T22:00:52.185Z,4.10
2023-04-05T22:05:55.809Z,3.50
2023-04-05T22:10:58.937Z,4.03
2023-04-05T22:16:03.097Z,4.57
2023-04-05T22:21:06.554Z,6.88
2023-04-05T22:26:10.143Z,1.45
2023-04-05T22:31:14.968Z,7.30
2023-04-05T22:36:18.950Z,2.38
2023-04-05T22:41:22.450Z,3.13
2023-04-05T22:46:25.851Z,2.95
2023-04-05T22:51:29.531Z,2.90
2023-04-05T22:56:33.709Z,2.67
2023-04-05T23:01:37.460Z,6.00
2023-04-05T23:06:41.734Z,3.38
2023-04-05T23:11:45.757Z,2.75
2023-04-05T23:16:49.258Z,4.32
2023-04-05T23:21:52.846Z,2.65
2023-04-05T23:26:56.390Z,3.53
2023-04-05T23:31:59.874Z,2.80
2023-04-05T23:37:03.563Z,3.03
2023-04-05T23:42:07.322Z,4.15
2023-04-05T23:47:10.885Z,5.30
2023-04-05T23:52:14.776Z,4.18
2023-04-05T23:57:18.833Z,2.83
